Terminal Aerodrome Forecast
Issued by NWS

Home | Current Version | Previous Version | Text Only | Print | Product List | Glossary Off
Versions: 1 2 3 4 5 6 7 8 9 10 11 12 13 14 15 16 17 18 19 20 21 22

000
FTUS43 KFGF 201300 AAA
TAFBJI
TAF AMD
KBJI 201318Z 2013/2112 VRB06KT P6SM SCT100 BKN250
      TEMPO 2013/2015 5SM BR OVC004
     FM201500 19012G20KT P6SM SCT080 SCT250
     FM210000 19006KT P6SM VCTS BKN050CB
     FM210400 VRB05KT P6SM SCT250=

USA.gov is the U.S. government's official web portal to all federal, state and local government web resources and services.